sensor_id;sensor_type;location;lat;lon;timestamp;temperature;humidity
44271;DHT22;29963;44.594;11.368;2023-02-19T00:00:59;9.50;99.90
44271;DHT22;29963;44.594;11.368;2023-02-19T00:03:26;9.50;99.90
44271;DHT22;29963;44.594;11.368;2023-02-19T00:05:51;9.50;99.90
44271;DHT22;29963;44.594;11.368;2023-02-19T00:08:17;9.50;99.90
44271;DHT22;29963;44.594;11.368;2023-02-19T00:10:42;9.50;99.90
44271;DHT22;29963;44.594;11.368;2023-02-19T00:13:08;9.50;99.90
44271;DHT22;29963;44.594;11.368;2023-02-19T00:15:33;9.50;99.90
44271;DHT22;29963;44.594;11.368;2023-02-19T00:17:59;9.50;99.90
44271;DHT22;29963;44.594;11.368;2023-02-19T00:20:25;9.50;99.90
44271;DHT22;29963;44.594;11.368;2023-02-19T00:22:51;9.40;99.90
44271;DHT22;29963;44.594;11.368;2023-02-19T00:25:16;9.40;99.90
44271;DHT22;29963;44.594;11.368;2023-02-19T00:27:42;9.40;99.90
44271;DHT22;29963;44.594;11.368;2023-02-19T00:30:08;9.30;99.90
44271;DHT22;29963;44.594;11.368;2023-02-19T00:32:34;9.30;99.90
44271;DHT22;29963;44.594;11.368;2023-02-19T00:34:59;9.20;99.90
44271;DHT22;29963;44.594;11.368;2023-02-19T00:37:25;9.30;99.90
44271;DHT22;29963;44.594;11.368;2023-02-19T00:39:50;9.20;99.90
44271;DHT22;29963;44.594;11.368;2023-02-19T00:42:16;9.20;99.90
44271;DHT22;29963;44.594;11.368;2023-02-19T00:44:44;9.20;99.90
44271;DHT22;29963;44.594;11.368;2023-02-19T00:47:10;9.20;99.90
44271;DHT22;29963;44.594;11.368;2023-02-19T00:49:35;9.20;99.90
44271;DHT22;29963;44.594;11.368;2023-02-19T00:52:01;9.10;99.90
44271;DHT22;29963;44.594;11.368;2023-02-19T00:54:27;9.10;99.90
44271;DHT22;29963;44.594;11.368;2023-02-19T00:56:52;9.00;99.90
44271;DHT22;29963;44.594;11.368;2023-02-19T00:59:18;9.00;99.90
44271;DHT22;29963;44.594;11.368;2023-02-19T01:01:43;8.90;99.90
44271;DHT22;29963;44.594;11.368;2023-02-19T01:04:09;8.90;99.90
44271;DHT22;29963;44.594;11.368;2023-02-19T01:06:35;8.80;99.90
44271;DHT22;29963;44.594;11.368;2023-02-19T01:09:02;8.80;99.90
44271;DHT22;29963;44.594;11.368;2023-02-19T01:11:28;8.80;99.90
44271;DHT22;29963;44.594;11.368;2023-02-19T01:13:58;8.80;99.90
44271;DHT22;29963;44.594;11.368;2023-02-19T01:16:24;8.70;99.90
44271;DHT22;29963;44.594;11.368;2023-02-19T01:18:52;8.60;99.90
44271;DHT22;29963;44.594;11.368;2023-02-19T01:21:24;8.60;99.90
44271;DHT22;29963;44.594;11.368;2023-02-19T01:23:52;8.60;99.90
44271;DHT22;29963;44.594;11.368;2023-02-19T01:26:20;8.60;99.90
44271;DHT22;29963;44.594;11.368;2023-02-19T01:28:46;8.50;99.90
44271;DHT22;29963;44.594;11.368;2023-02-19T01:31:15;8.60;99.90
44271;DHT22;29963;44.594;11.368;2023-02-19T01:33:46;8.60;99.90
44271;DHT22;29963;44.594;11.368;2023-02-19T01:36:12;8.60;99.90
44271;DHT22;29963;44.594;11.368;2023-02-19T01:38:37;8.60;99.90
44271;DHT22;29963;44.594;11.368;2023-02-19T01:41:05;8.60;99.90
44271;DHT22;29963;44.594;11.368;2023-02-19T01:43:33;8.60;99.90
44271;DHT22;29963;44.594;11.368;2023-02-19T01:45:59;8.60;99.90
44271;DHT22;29963;44.594;11.368;2023-02-19T01:48:33;8.60;99.90
44271;DHT22;29963;44.594;11.368;2023-02-19T01:51:04;8.60;99.90
44271;DHT22;29963;44.594;11.368;2023-02-19T01:53:34;8.60;99.90
44271;DHT22;29963;44.594;11.368;2023-02-19T01:56:01;8.60;99.90
44271;DHT22;29963;44.594;11.368;2023-02-19T01:58:29;8.50;99.90
44271;DHT22;29963;44.594;11.368;2023-02-19T02:00:56;8.50;99.90
44271;DHT22;29963;44.594;11.368;2023-02-19T02:03:22;8.40;99.90
44271;DHT22;29963;44.594;11.368;2023-02-19T02:06:53;8.30;99.90
44271;DHT22;29963;44.594;11.368;2023-02-19T02:08:50;8.30;99.90
44271;DHT22;29963;44.594;11.368;2023-02-19T02:11:35;8.50;99.90
44271;DHT22;29963;44.594;11.368;2023-02-19T02:14:03;8.20;99.90
44271;DHT22;29963;44.594;11.368;2023-02-19T02:22:19;8.20;99.90
44271;DHT22;29963;44.594;11.368;2023-02-19T02:36:00;8.00;99.90
44271;DHT22;29963;44.594;11.368;2023-02-19T02:38:29;8.00;99.90
44271;DHT22;29963;44.594;11.368;2023-02-19T02:40:57;8.00;99.90
44271;DHT22;29963;44.594;11.368;2023-02-19T02:43:23;7.90;99.90
44271;DHT22;29963;44.594;11.368;2023-02-19T02:45:48;7.80;99.90
44271;DHT22;29963;44.594;11.368;2023-02-19T02:48:25;7.80;99.90
44271;DHT22;29963;44.594;11.368;2023-02-19T02:51:24;7.80;99.90
44271;DHT22;29963;44.594;11.368;2023-02-19T02:54:13;7.70;99.90
44271;DHT22;29963;44.594;11.368;2023-02-19T02:56:57;7.60;99.90
44271;DHT22;29963;44.594;11.368;2023-02-19T02:59:25;7.50;99.90
44271;DHT22;29963;44.594;11.368;2023-02-19T03:02:05;7.50;99.90
44271;DHT22;29963;44.594;11.368;2023-02-19T03:04:59;7.40;99.90
44271;DHT22;29963;44.594;11.368;2023-02-19T03:10:40;7.30;99.90
44271;DHT22;29963;44.594;11.368;2023-02-19T03:13:10;7.30;99.90
44271;DHT22;29963;44.594;11.368;2023-02-19T03:16:07;7.20;99.90
44271;DHT22;29963;44.594;11.368;2023-02-19T03:18:54;7.10;99.90
44271;DHT22;29963;44.594;11.368;2023-02-19T03:21:40;6.90;99.90
44271;DHT22;29963;44.594;11.368;2023-02-19T03:26:55;6.60;99.90
44271;DHT22;29963;44.594;11.368;2023-02-19T03:29:22;6.50;99.90
44271;DHT22;29963;44.594;11.368;2023-02-19T03:32:00;6.50;99.90
44271;DHT22;29963;44.594;11.368;2023-02-19T03:34:34;6.50;99.90
44271;DHT22;29963;44.594;11.368;2023-02-19T03:39:38;6.30;99.90
44271;DHT22;29963;44.594;11.368;2023-02-19T03:47:26;6.40;99.90
44271;DHT22;29963;44.594;11.368;2023-02-19T03:49:57;6.40;99.90
44271;DHT22;29963;44.594;11.368;2023-02-19T03:57:57;6.50;99.90
44271;DHT22;29963;44.594;11.368;2023-02-19T04:00:41;6.50;99.90
44271;DHT22;29963;44.594;11.368;2023-02-19T04:03:16;6.50;99.90
44271;DHT22;29963;44.594;11.368;2023-02-19T04:05:47;6.50;99.90
44271;DHT22;29963;44.594;11.368;2023-02-19T04:08:17;6.40;99.90
44271;DHT22;29963;44.594;11.368;2023-02-19T04:10:45;6.40;99.90
44271;DHT22;29963;44.594;11.368;2023-02-19T04:13:33;6.40;99.90
44271;DHT22;29963;44.594;11.368;2023-02-19T04:16:05;6.30;99.90
44271;DHT22;29963;44.594;11.368;2023-02-19T04:18:39;6.30;99.90
44271;DHT22;29963;44.594;11.368;2023-02-19T04:21:06;6.40;99.90
44271;DHT22;29963;44.594;11.368;2023-02-19T04:23:44;6.40;99.90
44271;DHT22;29963;44.594;11.368;2023-02-19T04:26:11;6.40;99.90
44271;DHT22;29963;44.594;11.368;2023-02-19T04:28:38;6.40;99.90
44271;DHT22;29963;44.594;11.368;2023-02-19T04:31:04;6.40;99.90
44271;DHT22;29963;44.594;11.368;2023-02-19T04:33:30;6.50;99.90
44271;DHT22;29963;44.594;11.368;2023-02-19T04:35:55;6.50;99.90
44271;DHT22;29963;44.594;11.368;2023-02-19T04:38:21;6.50;99.90
44271;DHT22;29963;44.594;11.368;2023-02-19T04:40:47;6.50;99.90
44271;DHT22;29963;44.594;11.368;2023-02-19T04:43:13;6.50;99.90
44271;DHT22;29963;44.594;11.368;2023-02-19T04:45:38;6.50;99.90
44271;DHT22;29963;44.594;11.368;2023-02-19T04:48:04;6.50;99.90
44271;DHT22;29963;44.594;11.368;2023-02-19T04:50:30;6.50;99.90
44271;DHT22;29963;44.594;11.368;2023-02-19T04:52:56;6.60;99.90
44271;DHT22;29963;44.594;11.368;2023-02-19T04:55:22;6.50;99.90
44271;DHT22;29963;44.594;11.368;2023-02-19T04:57:47;6.50;99.90
44271;DHT22;29963;44.594;11.368;2023-02-19T05:00:13;6.60;99.90
44271;DHT22;29963;44.594;11.368;2023-02-19T05:02:39;6.60;99.90
44271;DHT22;29963;44.594;11.368;2023-02-19T05:05:04;6.70;99.90
44271;DHT22;29963;44.594;11.368;2023-02-19T05:07:30;6.70;99.90
44271;DHT22;29963;44.594;11.368;2023-02-19T05:09:56;6.60;99.90
44271;DHT22;29963;44.594;11.368;2023-02-19T05:12:22;6.60;99.90
44271;DHT22;29963;44.594;11.368;2023-02-19T05:14:48;6.60;99.90
44271;DHT22;29963;44.594;11.368;2023-02-19T05:17:13;6.60;99.90
44271;DHT22;29963;44.594;11.368;2023-02-19T05:19:39;6.50;99.90
44271;DHT22;29963;44.594;11.368;2023-02-19T05:22:04;6.40;99.90
44271;DHT22;29963;44.594;11.368;2023-02-19T05:24:30;6.30;99.90
44271;DHT22;29963;44.594;11.368;2023-02-19T05:26:56;6.40;99.90
44271;DHT22;29963;44.594;11.368;2023-02-19T05:29:21;6.50;99.90
44271;DHT22;29963;44.594;11.368;2023-02-19T05:31:47;6.50;99.90
44271;DHT22;29963;44.594;11.368;2023-02-19T05:34:13;6.50;99.90
44271;DHT22;29963;44.594;11.368;2023-02-19T05:36:39;6.50;99.90
44271;DHT22;29963;44.594;11.368;2023-02-19T05:39:06;6.60;99.90
44271;DHT22;29963;44.594;11.368;2023-02-19T05:41:32;6.60;99.90
44271;DHT22;29963;44.594;11.368;2023-02-19T05:43:58;6.60;99.90
44271;DHT22;29963;44.594;11.368;2023-02-19T05:46:26;6.70;99.90
44271;DHT22;29963;44.594;11.368;2023-02-19T05:48:53;6.70;99.90
44271;DHT22;29963;44.594;11.368;2023-02-19T05:51:21;6.80;99.90
44271;DHT22;29963;44.594;11.368;2023-02-19T05:53:47;6.90;99.90
44271;DHT22;29963;44.594;11.368;2023-02-19T05:56:23;6.90;99.90
44271;DHT22;29963;44.594;11.368;2023-02-19T05:58:51;6.90;99.90
44271;DHT22;29963;44.594;11.368;2023-02-19T06:01:19;6.90;99.90
44271;DHT22;29963;44.594;11.368;2023-02-19T06:03:45;6.90;99.90
44271;DHT22;29963;44.594;11.368;2023-02-19T06:06:15;6.90;99.90
44271;DHT22;29963;44.594;11.368;2023-02-19T06:08:40;7.00;99.90
44271;DHT22;29963;44.594;11.368;2023-02-19T06:11:06;7.00;99.90
44271;DHT22;29963;44.594;11.368;2023-02-19T06:13:32;7.00;99.90
44271;DHT22;29963;44.594;11.368;2023-02-19T06:15:59;7.00;99.90
44271;DHT22;29963;44.594;11.368;2023-02-19T06:18:27;7.10;99.90
44271;DHT22;29963;44.594;11.368;2023-02-19T06:20:52;7.00;99.90
44271;DHT22;29963;44.594;11.368;2023-02-19T06:23:18;7.00;99.90
44271;DHT22;29963;44.594;11.368;2023-02-19T06:25:43;7.00;99.90
44271;DHT22;29963;44.594;11.368;2023-02-19T06:28:09;7.00;99.90
44271;DHT22;29963;44.594;11.368;2023-02-19T06:30:38;6.90;99.90
44271;DHT22;29963;44.594;11.368;2023-02-19T06:33:03;7.00;99.90
44271;DHT22;29963;44.594;11.368;2023-02-19T06:35:29;7.00;99.90
44271;DHT22;29963;44.594;11.368;2023-02-19T06:37:54;7.00;99.90
44271;DHT22;29963;44.594;11.368;2023-02-19T06:40:20;7.00;99.90
44271;DHT22;29963;44.594;11.368;2023-02-19T06:42:45;7.00;99.90
44271;DHT22;29963;44.594;11.368;2023-02-19T06:45:11;7.00;99.90
44271;DHT22;29963;44.594;11.368;2023-02-19T06:47:36;7.00;99.90
44271;DHT22;29963;44.594;11.368;2023-02-19T06:50:02;7.00;99.90
44271;DHT22;29963;44.594;11.368;2023-02-19T06:52:29;7.10;99.90
44271;DHT22;29963;44.594;11.368;2023-02-19T06:54:54;7.10;99.90
44271;DHT22;29963;44.594;11.368;2023-02-19T06:57:20;7.20;99.90
44271;DHT22;29963;44.594;11.368;2023-02-19T06:59:45;7.20;99.90
44271;DHT22;29963;44.594;11.368;2023-02-19T07:02:11;7.20;99.90
44271;DHT22;29963;44.594;11.368;2023-02-19T07:04:37;7.30;99.90
44271;DHT22;29963;44.594;11.368;2023-02-19T07:07:03;7.40;99.90
44271;DHT22;29963;44.594;11.368;2023-02-19T07:09:29;7.40;99.90
44271;DHT22;29963;44.594;11.368;2023-02-19T07:11:55;7.50;99.90
44271;DHT22;29963;44.594;11.368;2023-02-19T07:14:20;7.50;99.90
44271;DHT22;29963;44.594;11.368;2023-02-19T07:16:46;7.50;99.90
44271;DHT22;29963;44.594;11.368;2023-02-19T07:19:13;7.50;99.90
44271;DHT22;29963;44.594;11.368;2023-02-19T07:21:39;7.50;99.90
44271;DHT22;29963;44.594;11.368;2023-02-19T07:24:07;7.60;99.90
44271;DHT22;29963;44.594;11.368;2023-02-19T07:26:34;7.60;99.90
44271;DHT22;29963;44.594;11.368;2023-02-19T07:29:00;7.70;99.90
44271;DHT22;29963;44.594;11.368;2023-02-19T07:31:26;7.90;99.90
44271;DHT22;29963;44.594;11.368;2023-02-19T07:33:54;8.00;99.90
44271;DHT22;29963;44.594;11.368;2023-02-19T07:36:21;8.10;99.90
44271;DHT22;29963;44.594;11.368;2023-02-19T07:38:55;8.20;99.90
44271;DHT22;29963;44.594;11.368;2023-02-19T07:41:21;8.30;99.90
44271;DHT22;29963;44.594;11.368;2023-02-19T07:43:47;8.40;99.90
44271;DHT22;29963;44.594;11.368;2023-02-19T07:46:13;8.40;99.90
44271;DHT22;29963;44.594;11.368;2023-02-19T07:48:40;8.50;99.90
44271;DHT22;29963;44.594;11.368;2023-02-19T07:51:09;8.50;99.90
44271;DHT22;29963;44.594;11.368;2023-02-19T07:53:35;8.60;99.90
44271;DHT22;29963;44.594;11.368;2023-02-19T07:56:05;8.70;99.90
44271;DHT22;29963;44.594;11.368;2023-02-19T07:58:31;8.80;99.90
44271;DHT22;29963;44.594;11.368;2023-02-19T08:01:06;8.80;99.90
44271;DHT22;29963;44.594;11.368;2023-02-19T08:03:31;8.90;99.90
44271;DHT22;29963;44.594;11.368;2023-02-19T08:05:57;9.00;99.90
44271;DHT22;29963;44.594;11.368;2023-02-19T08:08:26;9.00;99.90
44271;DHT22;29963;44.594;11.368;2023-02-19T08:10:51;9.00;99.90
44271;DHT22;29963;44.594;11.368;2023-02-19T08:13:35;9.10;99.90
44271;DHT22;29963;44.594;11.368;2023-02-19T08:18:31;9.20;99.90
44271;DHT22;29963;44.594;11.368;2023-02-19T08:20:58;9.40;99.90
44271;DHT22;29963;44.594;11.368;2023-02-19T08:23:24;9.50;99.90
44271;DHT22;29963;44.594;11.368;2023-02-19T08:25:51;9.60;99.90
44271;DHT22;29963;44.594;11.368;2023-02-19T08:28:18;9.70;99.90
44271;DHT22;29963;44.594;11.368;2023-02-19T08:30:45;9.80;99.90
44271;DHT22;29963;44.594;11.368;2023-02-19T08:33:14;9.90;99.90
44271;DHT22;29963;44.594;11.368;2023-02-19T08:35:40;10.00;99.90
44271;DHT22;29963;44.594;11.368;2023-02-19T08:38:07;10.10;99.90
44271;DHT22;29963;44.594;11.368;2023-02-19T08:40:34;10.30;99.90
44271;DHT22;29963;44.594;11.368;2023-02-19T08:43:06;10.40;99.90
44271;DHT22;29963;44.594;11.368;2023-02-19T08:45:32;10.60;99.90
44271;DHT22;29963;44.594;11.368;2023-02-19T08:47:58;10.70;99.90
44271;DHT22;29963;44.594;11.368;2023-02-19T08:50:25;10.90;99.90
44271;DHT22;29963;44.594;11.368;2023-02-19T08:52:51;10.90;99.90
44271;DHT22;29963;44.594;11.368;2023-02-19T08:55:17;11.00;99.90
44271;DHT22;29963;44.594;11.368;2023-02-19T08:57:42;11.00;99.90
44271;DHT22;29963;44.594;11.368;2023-02-19T09:00:09;11.20;99.90
44271;DHT22;29963;44.594;11.368;2023-02-19T09:02:35;11.30;99.90
44271;DHT22;29963;44.594;11.368;2023-02-19T09:05:01;11.40;99.90
44271;DHT22;29963;44.594;11.368;2023-02-19T09:07:27;11.50;99.90
44271;DHT22;29963;44.594;11.368;2023-02-19T09:09:52;11.60;99.90
44271;DHT22;29963;44.594;11.368;2023-02-19T09:12:18;11.80;99.90
44271;DHT22;29963;44.594;11.368;2023-02-19T09:14:44;11.90;99.90
44271;DHT22;29963;44.594;11.368;2023-02-19T09:17:10;12.00;99.90
44271;DHT22;29963;44.594;11.368;2023-02-19T09:19:36;12.10;99.90
44271;DHT22;29963;44.594;11.368;2023-02-19T09:22:02;12.20;99.90
44271;DHT22;29963;44.594;11.368;2023-02-19T09:24:28;12.30;99.90
44271;DHT22;29963;44.594;11.368;2023-02-19T09:26:54;12.40;99.90
44271;DHT22;29963;44.594;11.368;2023-02-19T09:29:23;12.40;99.90
44271;DHT22;29963;44.594;11.368;2023-02-19T09:31:48;12.50;99.90
44271;DHT22;29963;44.594;11.368;2023-02-19T09:34:14;12.60;99.90
44271;DHT22;29963;44.594;11.368;2023-02-19T09:36:40;12.70;99.90
44271;DHT22;29963;44.594;11.368;2023-02-19T09:39:07;12.80;99.90
44271;DHT22;29963;44.594;11.368;2023-02-19T09:41:36;12.90;99.90
44271;DHT22;29963;44.594;11.368;2023-02-19T09:44:05;13.10;99.90
44271;DHT22;29963;44.594;11.368;2023-02-19T09:46:43;13.20;99.90
44271;DHT22;29963;44.594;11.368;2023-02-19T09:49:14;13.30;99.90
44271;DHT22;29963;44.594;11.368;2023-02-19T09:51:56;13.40;99.90
44271;DHT22;29963;44.594;11.368;2023-02-19T09:54:28;13.40;99.90
44271;DHT22;29963;44.594;11.368;2023-02-19T09:56:55;13.50;99.90
44271;DHT22;29963;44.594;11.368;2023-02-19T09:59:28;13.60;99.90
44271;DHT22;29963;44.594;11.368;2023-02-19T10:02:02;13.60;99.90
44271;DHT22;29963;44.594;11.368;2023-02-19T10:04:28;13.70;99.90
44271;DHT22;29963;44.594;11.368;2023-02-19T10:06:57;13.80;99.90
44271;DHT22;29963;44.594;11.368;2023-02-19T10:09:29;13.80;99.90
44271;DHT22;29963;44.594;11.368;2023-02-19T10:11:57;13.90;99.90
44271;DHT22;29963;44.594;11.368;2023-02-19T10:14:36;13.90;99.90
44271;DHT22;29963;44.594;11.368;2023-02-19T10:17:05;14.00;99.90
44271;DHT22;29963;44.594;11.368;2023-02-19T10:19:32;14.10;99.90
44271;DHT22;29963;44.594;11.368;2023-02-19T10:21:59;14.30;99.90
44271;DHT22;29963;44.594;11.368;2023-02-19T10:24:28;14.40;99.90
44271;DHT22;29963;44.594;11.368;2023-02-19T10:26:54;14.50;99.90
44271;DHT22;29963;44.594;11.368;2023-02-19T10:29:20;14.50;99.90
44271;DHT22;29963;44.594;11.368;2023-02-19T10:31:46;14.50;99.90
44271;DHT22;29963;44.594;11.368;2023-02-19T10:34:19;14.50;99.90
44271;DHT22;29963;44.594;11.368;2023-02-19T10:36:47;14.50;99.90
44271;DHT22;29963;44.594;11.368;2023-02-19T10:41:48;14.50;99.90
44271;DHT22;29963;44.594;11.368;2023-02-19T10:44:20;14.50;99.90
44271;DHT22;29963;44.594;11.368;2023-02-19T10:46:50;14.60;99.90
44271;DHT22;29963;44.594;11.368;2023-02-19T10:49:37;14.60;99.90
44271;DHT22;29963;44.594;11.368;2023-02-19T10:54:45;14.70;99.90
44271;DHT22;29963;44.594;11.368;2023-02-19T10:57:23;14.80;99.90
44271;DHT22;29963;44.594;11.368;2023-02-19T10:59:56;14.80;99.90
44271;DHT22;29963;44.594;11.368;2023-02-19T11:02:23;14.90;99.90
44271;DHT22;29963;44.594;11.368;2023-02-19T11:07:30;14.90;99.90
44271;DHT22;29963;44.594;11.368;2023-02-19T11:09:57;14.90;99.90
44271;DHT22;29963;44.594;11.368;2023-02-19T11:12:29;15.00;99.90
44271;DHT22;29963;44.594;11.368;2023-02-19T11:14:55;15.10;99.90
44271;DHT22;29963;44.594;11.368;2023-02-19T11:17:29;15.10;99.90
44271;DHT22;29963;44.594;11.368;2023-02-19T11:20:01;15.20;99.90
44271;DHT22;29963;44.594;11.368;2023-02-19T11:25:19;15.20;99.90
44271;DHT22;29963;44.594;11.368;2023-02-19T11:28:40;15.30;99.90
44271;DHT22;29963;44.594;11.368;2023-02-19T11:30:46;15.20;99.90
44271;DHT22;29963;44.594;11.368;2023-02-19T11:35:42;15.40;99.90
44271;DHT22;29963;44.594;11.368;2023-02-19T11:38:10;15.40;99.90
44271;DHT22;29963;44.594;11.368;2023-02-19T11:43:33;15.60;99.90
44271;DHT22;29963;44.594;11.368;2023-02-19T11:46:29;15.60;99.90
44271;DHT22;29963;44.594;11.368;2023-02-19T11:49:28;15.70;99.90
44271;DHT22;29963;44.594;11.368;2023-02-19T11:52:27;15.70;99.90
44271;DHT22;29963;44.594;11.368;2023-02-19T11:54:54;15.80;99.90
44271;DHT22;29963;44.594;11.368;2023-02-19T11:57:46;15.80;99.90
44271;DHT22;29963;44.594;11.368;2023-02-19T12:00:28;15.80;99.90
44271;DHT22;29963;44.594;11.368;2023-02-19T12:03:19;15.90;99.90
44271;DHT22;29963;44.594;11.368;2023-02-19T12:06:30;15.90;99.90
44271;DHT22;29963;44.594;11.368;2023-02-19T12:09:19;15.90;99.90
44271;DHT22;29963;44.594;11.368;2023-02-19T12:20:29;16.10;99.90
44271;DHT22;29963;44.594;11.368;2023-02-19T12:34:21;16.30;99.90
44271;DHT22;29963;44.594;11.368;2023-02-19T12:39:27;16.40;99.90
44271;DHT22;29963;44.594;11.368;2023-02-19T12:44:45;16.50;99.90
44271;DHT22;29963;44.594;11.368;2023-02-19T12:47:22;16.50;99.90
44271;DHT22;29963;44.594;11.368;2023-02-19T12:50:15;16.40;99.90
44271;DHT22;29963;44.594;11.368;2023-02-19T12:52:49;16.30;99.90
44271;DHT22;29963;44.594;11.368;2023-02-19T12:55:29;16.30;99.90
44271;DHT22;29963;44.594;11.368;2023-02-19T12:57:58;16.30;99.90
44271;DHT22;29963;44.594;11.368;2023-02-19T13:11:12;16.70;99.90
44271;DHT22;29963;44.594;11.368;2023-02-19T13:13:44;16.70;99.90
44271;DHT22;29963;44.594;11.368;2023-02-19T13:16:15;16.70;99.90
44271;DHT22;29963;44.594;11.368;2023-02-19T13:21:11;16.90;99.90
44271;DHT22;29963;44.594;11.368;2023-02-19T13:23:40;16.90;99.90
44271;DHT22;29963;44.594;11.368;2023-02-19T13:38:00;17.20;99.90
44271;DHT22;29963;44.594;11.368;2023-02-19T13:40:40;17.30;99.90
44271;DHT22;29963;44.594;11.368;2023-02-19T13:46:01;17.40;99.90
44271;DHT22;29963;44.594;11.368;2023-02-19T13:48:31;17.50;99.90
44271;DHT22;29963;44.594;11.368;2023-02-19T14:04:29;17.70;99.90
44271;DHT22;29963;44.594;11.368;2023-02-19T14:14:43;18.00;99.90
44271;DHT22;29963;44.594;11.368;2023-02-19T14:27:42;18.10;99.90
44271;DHT22;29963;44.594;11.368;2023-02-19T14:30:11;18.20;99.90
44271;DHT22;29963;44.594;11.368;2023-02-19T14:32:39;18.30;99.90
44271;DHT22;29963;44.594;11.368;2023-02-19T14:35:06;18.50;99.90
44271;DHT22;29963;44.594;11.368;2023-02-19T14:37:44;18.60;99.90
44271;DHT22;29963;44.594;11.368;2023-02-19T14:42:45;19.50;99.90
44271;DHT22;29963;44.594;11.368;2023-02-19T14:45:14;20.00;99.90
44271;DHT22;29963;44.594;11.368;2023-02-19T14:47:40;20.70;99.90
44271;DHT22;29963;44.594;11.368;2023-02-19T14:50:28;21.60;99.90
44271;DHT22;29963;44.594;11.368;2023-02-19T14:53:02;22.60;99.40
44271;DHT22;29963;44.594;11.368;2023-02-19T14:55:33;23.20;97.90
44271;DHT22;29963;44.594;11.368;2023-02-19T14:58:05;23.70;96.60
44271;DHT22;29963;44.594;11.368;2023-02-19T15:00:36;24.40;95.70
44271;DHT22;29963;44.594;11.368;2023-02-19T15:03:04;24.50;94.30
44271;DHT22;29963;44.594;11.368;2023-02-19T15:05:34;24.90;93.60
44271;DHT22;29963;44.594;11.368;2023-02-19T15:08:06;25.30;92.10
44271;DHT22;29963;44.594;11.368;2023-02-19T15:10:34;25.60;91.80
44271;DHT22;29963;44.594;11.368;2023-02-19T15:13:03;25.90;90.90
44271;DHT22;29963;44.594;11.368;2023-02-19T15:15:32;26.30;90.60
44271;DHT22;29963;44.594;11.368;2023-02-19T15:18:00;26.60;90.30
44271;DHT22;29963;44.594;11.368;2023-02-19T15:20:33;26.80;88.50
44271;DHT22;29963;44.594;11.368;2023-02-19T15:23:01;26.90;86.80
44271;DHT22;29963;44.594;11.368;2023-02-19T15:25:38;27.00;86.70
44271;DHT22;29963;44.594;11.368;2023-02-19T15:30:49;27.60;83.40
44271;DHT22;29963;44.594;11.368;2023-02-19T15:33:18;27.80;82.60
44271;DHT22;29963;44.594;11.368;2023-02-19T15:35:49;27.90;81.00
44271;DHT22;29963;44.594;11.368;2023-02-19T15:38:16;27.90;80.50
44271;DHT22;29963;44.594;11.368;2023-02-19T15:40:48;28.00;80.00
44271;DHT22;29963;44.594;11.368;2023-02-19T15:43:40;28.10;78.90
44271;DHT22;29963;44.594;11.368;2023-02-19T15:46:20;28.10;77.40
44271;DHT22;29963;44.594;11.368;2023-02-19T15:49:30;28.10;76.90
44271;DHT22;29963;44.594;11.368;2023-02-19T15:52:05;28.00;76.30
44271;DHT22;29963;44.594;11.368;2023-02-19T15:54:51;27.70;76.30
44271;DHT22;29963;44.594;11.368;2023-02-19T15:57:23;27.50;76.90
44271;DHT22;29963;44.594;11.368;2023-02-19T15:59:54;27.30;76.50
44271;DHT22;29963;44.594;11.368;2023-02-19T16:02:21;27.20;76.70
44271;DHT22;29963;44.594;11.368;2023-02-19T16:04:47;26.90;77.00
44271;DHT22;29963;44.594;11.368;2023-02-19T16:07:27;26.70;77.10
44271;DHT22;29963;44.594;11.368;2023-02-19T16:10:22;26.40;77.50
44271;DHT22;29963;44.594;11.368;2023-02-19T16:12:59;26.10;78.10
44271;DHT22;29963;44.594;11.368;2023-02-19T16:15:26;25.70;78.80
44271;DHT22;29963;44.594;11.368;2023-02-19T16:17:53;25.30;79.20
44271;DHT22;29963;44.594;11.368;2023-02-19T16:20:23;24.90;79.80
44271;DHT22;29963;44.594;11.368;2023-02-19T16:22:49;24.60;80.90
44271;DHT22;29963;44.594;11.368;2023-02-19T16:25:27;24.10;81.70
44271;DHT22;29963;44.594;11.368;2023-02-19T16:27:53;23.70;83.20
44271;DHT22;29963;44.594;11.368;2023-02-19T16:30:28;23.20;84.20
44271;DHT22;29963;44.594;11.368;2023-02-19T16:35:57;22.20;86.80
44271;DHT22;29963;44.594;11.368;2023-02-19T16:38:39;21.50;88.60
44271;DHT22;29963;44.594;11.368;2023-02-19T16:41:10;20.90;90.30
44271;DHT22;29963;44.594;11.368;2023-02-19T16:43:41;20.30;91.20
44271;DHT22;29963;44.594;11.368;2023-02-19T16:46:11;19.80;92.20
44271;DHT22;29963;44.594;11.368;2023-02-19T16:48:37;19.40;93.20
44271;DHT22;29963;44.594;11.368;2023-02-19T16:51:07;19.00;93.80
44271;DHT22;29963;44.594;11.368;2023-02-19T16:53:32;18.60;94.50
44271;DHT22;29963;44.594;11.368;2023-02-19T16:55:58;18.30;95.20
44271;DHT22;29963;44.594;11.368;2023-02-19T16:58:25;18.10;96.10
44271;DHT22;29963;44.594;11.368;2023-02-19T17:00:50;17.80;96.20
44271;DHT22;29963;44.594;11.368;2023-02-19T17:03:21;17.60;96.90
44271;DHT22;29963;44.594;11.368;2023-02-19T17:05:49;17.40;97.50
44271;DHT22;29963;44.594;11.368;2023-02-19T17:08:34;17.10;98.10
44271;DHT22;29963;44.594;11.368;2023-02-19T17:11:08;17.00;98.70
44271;DHT22;29963;44.594;11.368;2023-02-19T17:13:34;16.80;99.20
44271;DHT22;29963;44.594;11.368;2023-02-19T17:16:03;16.70;99.60
44271;DHT22;29963;44.594;11.368;2023-02-19T17:18:28;16.60;99.90
44271;DHT22;29963;44.594;11.368;2023-02-19T17:21:23;16.40;99.90
44271;DHT22;29963;44.594;11.368;2023-02-19T17:23:50;16.40;99.90
44271;DHT22;29963;44.594;11.368;2023-02-19T17:26:21;16.20;99.90
44271;DHT22;29963;44.594;11.368;2023-02-19T17:28:48;16.20;99.90
44271;DHT22;29963;44.594;11.368;2023-02-19T17:31:14;16.10;99.90
44271;DHT22;29963;44.594;11.368;2023-02-19T17:33:40;16.00;99.90
44271;DHT22;29963;44.594;11.368;2023-02-19T17:36:06;15.90;99.90
44271;DHT22;29963;44.594;11.368;2023-02-19T17:38:31;15.70;99.90
44271;DHT22;29963;44.594;11.368;2023-02-19T17:40:57;15.70;99.90
44271;DHT22;29963;44.594;11.368;2023-02-19T17:43:22;15.60;99.90
44271;DHT22;29963;44.594;11.368;2023-02-19T17:45:49;15.60;99.90
44271;DHT22;29963;44.594;11.368;2023-02-19T17:48:14;15.50;99.90
44271;DHT22;29963;44.594;11.368;2023-02-19T17:50:40;15.50;99.90
44271;DHT22;29963;44.594;11.368;2023-02-19T17:53:06;15.40;99.90
44271;DHT22;29963;44.594;11.368;2023-02-19T17:55:35;15.40;99.90
44271;DHT22;29963;44.594;11.368;2023-02-19T17:58:00;15.30;99.90
44271;DHT22;29963;44.594;11.368;2023-02-19T18:00:30;15.30;99.90
44271;DHT22;29963;44.594;11.368;2023-02-19T18:02:57;15.20;99.90
44271;DHT22;29963;44.594;11.368;2023-02-19T18:05:23;15.20;99.90
44271;DHT22;29963;44.594;11.368;2023-02-19T18:07:49;15.10;99.90